aviador You're here:

WBKW Decoded Metar

TAWAU in MALAYSIA
Report Time2018-05-25 20:00:00
UTC Time2018-05-25 20:41:58
Flight Rules vfr VFR
WindVRB at 02 kt
Visibility9999 m
Phenomena:N/A
Clouds:Few 017 Hf
Broken 300 Hf
Expected CloudBase > 400 ft AGL from Temp-Dew spread
Ceiling30,000 ft
Temp25°C (ISA +10)
Dew Point24°C (94% RH)
QNH1008 hPa
Density Alt1,798 ft
Elevation66 ft
Report Wrong Elevation
Raw Report
METAR WBKW 252000Z VRB02KT 9999 FEW017 BKN300 25/24 Q1008=

Extra information for WBKW:More info

Metar Taf Metar & Taf Last 4 Metars F.Rules Stats Wind Profile Meteogram Temp Stats Airport Information Weather charts Add Link Nearby VenuesMetar ALERT Operation Metar Decoded Social comments